BERRYESSA (BER)

Elevation: 456' · PUTAH CR basin · Operator: US Bureau of Reclamation

Provisional data, subject to change.
Query executed Sunday at 17:00:21   clock

Select a sensor type for a plot of data.
Note: Reservoir Flows are daily averages.

Earlier

Date RES ELE    STORAGE    OUTFLOW    INFLOW    PPT INC   
 FEET   AF   CFS   CFS   INCHES  
08/23/2014 404.65 946241 528 -102 0.00
08/24/2014 404.59 945323 511 170 0.00
08/25/2014 404.50 943947 505 -25 0.00
08/26/2014 404.42 942725 501 -2 0.00
08/27/2014 404.35 941656 456 44 0.00
08/28/2014 404.30 940893 435 172 0.00
08/29/2014 404.21 939520 428 -109 0.00
08/30/2014 404.15 938605 419 52 0.00
08/31/2014 404.10 937843 424 204 0.00
09/01/2014 404.01 936472 430 -134 0.00
09/02/2014 403.96 935710 458 230 0.00
09/03/2014 403.88 934493 493 25 0.00
09/04/2014 403.81 933428 480 47 0.00
09/05/2014 403.74 932364 465 56 0.00
09/06/2014 403.67 931300 453 35 0.00
09/07/2014 403.60 930236 413 13 0.00
09/08/2014 403.53 929174 404 -9 0.00
09/09/2014 403.46 928112 466 58 0.00
09/10/2014 403.39 927050 485 39 0.00
09/11/2014 403.32 925989 485 77 0.00
09/12/2014 403.25 924928 485 77 0.00
09/13/2014 403.17 923717 485 15 0.00
09/14/2014 403.11 922809 437 101 0.00
09/15/2014 -- -- -- -- --
09/16/2014 -- -- -- -- --
09/17/2014 -- -- -- -- --
09/18/2014 -- -- -- -- --
09/19/2014 -- -- -- -- --
09/20/2014 -- -- -- -- --
09/21/2014 -- -- -- -- --

Later | Latest

Warning! This data is preliminary and subject to revision.

Download Data Now Download Data Now | Show BER Map | Plot BER Data | 1 Month BER Data | Real-Time BER Data | BER Info